Terminal Aerodrome Forecast
Issued by NWS Cleveland, OH

Home | Current Version | Previous Version | Text Only | Print | Product List | Glossary Off
Versions: 1 2 3 4 5 6 7 8 9 10 11 12 13 14 15 16 17 18 19 20 21 22 23 24 25 26 27 28 29 30 31

868
FTUS41 KCLE 150853 AAB
TAFCLE
TAF AMD
KCLE 150853Z 1509/1612 12004KT P6SM BKN120
     FM151500 15008KT 3SM -SN OVC030
     FM151700 16010KT 5SM -SN OVC020
      TEMPO 1518/1520 2SM -SN OVC015
     FM152000 16010KT 1 1/2SM -SN OVC015
     FM160100 19007KT P6SM OVC010
     FM160500 22007KT P6SM BKN015=

USA.gov is the U.S. government's official web portal to all federal, state and local government web resources and services.